METAR Data
IDs: Format: Raw Decoded Include TAF

Data at: 1246 UTC 17 Aug 2019

MRPV 171200Z 14005KT CAVOK 20/17 A3005 NOSIG

MROC 171200Z 02003KT 290V090 CAVOK 20/18 A3004 NOSIG

No METAR found for